ADDS METAR Data INFO
IDs: Format: Raw Decoded Include TAF

Data at: 0215 UTC 18 Jan 2018

METAR for:KPCM (Plant City Arpt, FL, US)
Text:KPCM 180155Z AUTO 31006KT 10SM CLR 07/01 A3034 RMK AO2
Temperature: 7.0°C ( 45°F)
Dewpoint: 1.0°C ( 34°F) [RH = 66%]
Pressure (altimeter):30.34 inches Hg (1027.5 mb)
Winds:from the NW (310 degrees) at 7 MPH (6 knots; 3.1 m/s)
Visibility:10 or more sm (16+ km)
Ceiling:at least 12,000 feet AGL
Clouds:sky clear below 12,000 feet AGL
QC Flag:automated observation with no human augmentation